sensor_id;sensor_type;location;lat;lon;timestamp;P1;durP1;ratioP1;P2;durP2;ratioP2
18526;SDS011;9393;42.158;24.748;2023-08-06T00:00:37;13.70;;;6.07;;
18526;SDS011;9393;42.158;24.748;2023-08-06T00:03:43;8.95;;;5.47;;
18526;SDS011;9393;42.158;24.748;2023-08-06T00:06:47;12.10;;;6.75;;
18526;SDS011;9393;42.158;24.748;2023-08-06T00:09:50;9.02;;;5.95;;
18526;SDS011;9393;42.158;24.748;2023-08-06T00:12:54;11.18;;;6.15;;
18526;SDS011;9393;42.158;24.748;2023-08-06T00:16:07;8.60;;;6.15;;
18526;SDS011;9393;42.158;24.748;2023-08-06T00:19:14;11.00;;;6.28;;
18526;SDS011;9393;42.158;24.748;2023-08-06T00:22:17;10.52;;;6.25;;
18526;SDS011;9393;42.158;24.748;2023-08-06T00:25:21;9.88;;;6.53;;
18526;SDS011;9393;42.158;24.748;2023-08-06T00:28:25;12.40;;;7.10;;
18526;SDS011;9393;42.158;24.748;2023-08-06T00:31:29;17.05;;;9.68;;
18526;SDS011;9393;42.158;24.748;2023-08-06T00:34:34;12.43;;;9.07;;
18526;SDS011;9393;42.158;24.748;2023-08-06T00:37:38;13.02;;;8.43;;
18526;SDS011;9393;42.158;24.748;2023-08-06T00:40:41;16.63;;;8.75;;
18526;SDS011;9393;42.158;24.748;2023-08-06T00:43:45;12.07;;;8.60;;
18526;SDS011;9393;42.158;24.748;2023-08-06T00:46:49;12.52;;;7.60;;
18526;SDS011;9393;42.158;24.748;2023-08-06T00:49:57;12.57;;;8.00;;
18526;SDS011;9393;42.158;24.748;2023-08-06T00:53:02;11.18;;;7.40;;
18526;SDS011;9393;42.158;24.748;2023-08-06T00:56:06;13.13;;;7.35;;
18526;SDS011;9393;42.158;24.748;2023-08-06T00:59:11;13.13;;;9.05;;
18526;SDS011;9393;42.158;24.748;2023-08-06T01:02:15;12.23;;;7.93;;
18526;SDS011;9393;42.158;24.748;2023-08-06T01:05:21;13.20;;;8.13;;
18526;SDS011;9393;42.158;24.748;2023-08-06T01:08:29;13.30;;;7.95;;
18526;SDS011;9393;42.158;24.748;2023-08-06T01:11:42;14.32;;;8.93;;
18526;SDS011;9393;42.158;24.748;2023-08-06T01:14:58;15.18;;;9.95;;
18526;SDS011;9393;42.158;24.748;2023-08-06T01:18:08;12.07;;;8.73;;
18526;SDS011;9393;42.158;24.748;2023-08-06T01:21:15;14.30;;;7.88;;
18526;SDS011;9393;42.158;24.748;2023-08-06T01:24:19;11.45;;;7.82;;
18526;SDS011;9393;42.158;24.748;2023-08-06T01:27:25;11.80;;;7.60;;
18526;SDS011;9393;42.158;24.748;2023-08-06T01:30:33;11.43;;;7.15;;
18526;SDS011;9393;42.158;24.748;2023-08-06T01:33:43;10.32;;;7.13;;
18526;SDS011;9393;42.158;24.748;2023-08-06T01:36:50;10.85;;;7.82;;
18526;SDS011;9393;42.158;24.748;2023-08-06T01:39:55;10.05;;;7.13;;
18526;SDS011;9393;42.158;24.748;2023-08-06T01:42:59;15.00;;;7.05;;
18526;SDS011;9393;42.158;24.748;2023-08-06T01:46:03;10.18;;;7.40;;
18526;SDS011;9393;42.158;24.748;2023-08-06T01:49:07;13.35;;;7.28;;
18526;SDS011;9393;42.158;24.748;2023-08-06T01:52:12;11.65;;;6.93;;
18526;SDS011;9393;42.158;24.748;2023-08-06T01:55:16;15.63;;;8.40;;
18526;SDS011;9393;42.158;24.748;2023-08-06T01:58:20;11.38;;;7.47;;
18526;SDS011;9393;42.158;24.748;2023-08-06T02:01:23;9.52;;;6.82;;
18526;SDS011;9393;42.158;24.748;2023-08-06T02:04:27;12.20;;;7.70;;
18526;SDS011;9393;42.158;24.748;2023-08-06T02:07:32;11.15;;;7.60;;
18526;SDS011;9393;42.158;24.748;2023-08-06T02:10:37;14.63;;;8.05;;
18526;SDS011;9393;42.158;24.748;2023-08-06T02:13:41;12.65;;;8.30;;
18526;SDS011;9393;42.158;24.748;2023-08-06T02:16:51;13.02;;;8.25;;
18526;SDS011;9393;42.158;24.748;2023-08-06T02:19:55;12.20;;;7.82;;
18526;SDS011;9393;42.158;24.748;2023-08-06T02:23:00;13.70;;;8.95;;
18526;SDS011;9393;42.158;24.748;2023-08-06T02:26:04;11.43;;;7.95;;
18526;SDS011;9393;42.158;24.748;2023-08-06T02:29:08;13.60;;;7.65;;
18526;SDS011;9393;42.158;24.748;2023-08-06T02:32:12;14.60;;;8.70;;
18526;SDS011;9393;42.158;24.748;2023-08-06T02:35:15;13.65;;;8.48;;
18526;SDS011;9393;42.158;24.748;2023-08-06T02:38:21;14.02;;;8.80;;
18526;SDS011;9393;42.158;24.748;2023-08-06T02:41:25;10.63;;;8.30;;
18526;SDS011;9393;42.158;24.748;2023-08-06T02:44:31;18.92;;;9.63;;
18526;SDS011;9393;42.158;24.748;2023-08-06T02:47:35;11.80;;;9.13;;
18526;SDS011;9393;42.158;24.748;2023-08-06T02:50:40;14.27;;;9.50;;
18526;SDS011;9393;42.158;24.748;2023-08-06T02:53:46;15.65;;;9.40;;
18526;SDS011;9393;42.158;24.748;2023-08-06T02:56:53;13.38;;;9.43;;
18526;SDS011;9393;42.158;24.748;2023-08-06T03:00:01;12.50;;;10.10;;
18526;SDS011;9393;42.158;24.748;2023-08-06T03:03:06;14.70;;;10.27;;
18526;SDS011;9393;42.158;24.748;2023-08-06T03:06:19;12.77;;;10.85;;
18526;SDS011;9393;42.158;24.748;2023-08-06T03:09:29;15.50;;;11.20;;
18526;SDS011;9393;42.158;24.748;2023-08-06T03:12:33;15.05;;;11.70;;
18526;SDS011;9393;42.158;24.748;2023-08-06T03:15:38;17.05;;;12.00;;
18526;SDS011;9393;42.158;24.748;2023-08-06T03:18:44;21.58;;;13.38;;
18526;SDS011;9393;42.158;24.748;2023-08-06T03:21:48;14.60;;;12.07;;
18526;SDS011;9393;42.158;24.748;2023-08-06T03:24:54;16.15;;;13.40;;
18526;SDS011;9393;42.158;24.748;2023-08-06T03:28:00;17.65;;;12.38;;
18526;SDS011;9393;42.158;24.748;2023-08-06T03:31:04;19.60;;;13.70;;
18526;SDS011;9393;42.158;24.748;2023-08-06T03:34:15;23.67;;;15.75;;
18526;SDS011;9393;42.158;24.748;2023-08-06T03:37:20;19.60;;;14.77;;
18526;SDS011;9393;42.158;24.748;2023-08-06T03:40:27;24.02;;;14.95;;
18526;SDS011;9393;42.158;24.748;2023-08-06T03:43:32;18.80;;;15.68;;
18526;SDS011;9393;42.158;24.748;2023-08-06T03:46:40;21.67;;;15.40;;
18526;SDS011;9393;42.158;24.748;2023-08-06T03:49:44;17.75;;;15.93;;
18526;SDS011;9393;42.158;24.748;2023-08-06T03:52:48;17.63;;;15.55;;
18526;SDS011;9393;42.158;24.748;2023-08-06T03:55:53;22.23;;;16.33;;
18526;SDS011;9393;42.158;24.748;2023-08-06T03:58:57;19.10;;;17.08;;
18526;SDS011;9393;42.158;24.748;2023-08-06T04:02:01;20.80;;;16.55;;
18526;SDS011;9393;42.158;24.748;2023-08-06T04:05:05;21.75;;;17.40;;
18526;SDS011;9393;42.158;24.748;2023-08-06T04:08:09;23.23;;;18.83;;
18526;SDS011;9393;42.158;24.748;2023-08-06T04:11:15;22.67;;;17.92;;
18526;SDS011;9393;42.158;24.748;2023-08-06T04:14:18;20.38;;;17.77;;
18526;SDS011;9393;42.158;24.748;2023-08-06T04:17:22;20.50;;;17.48;;
18526;SDS011;9393;42.158;24.748;2023-08-06T04:20:26;24.10;;;17.48;;
18526;SDS011;9393;42.158;24.748;2023-08-06T04:23:30;22.10;;;17.92;;
18526;SDS011;9393;42.158;24.748;2023-08-06T04:26:39;22.13;;;18.17;;
18526;SDS011;9393;42.158;24.748;2023-08-06T04:29:46;24.38;;;19.17;;
18526;SDS011;9393;42.158;24.748;2023-08-06T04:32:50;22.10;;;19.45;;
18526;SDS011;9393;42.158;24.748;2023-08-06T04:35:55;23.92;;;19.17;;
18526;SDS011;9393;42.158;24.748;2023-08-06T04:39:00;23.23;;;19.98;;
18526;SDS011;9393;42.158;24.748;2023-08-06T04:42:06;25.65;;;20.55;;
18526;SDS011;9393;42.158;24.748;2023-08-06T04:45:10;26.95;;;21.15;;
18526;SDS011;9393;42.158;24.748;2023-08-06T04:48:14;22.60;;;20.23;;
18526;SDS011;9393;42.158;24.748;2023-08-06T04:51:18;23.95;;;20.42;;
18526;SDS011;9393;42.158;24.748;2023-08-06T04:54:21;23.48;;;19.98;;
18526;SDS011;9393;42.158;24.748;2023-08-06T04:57:27;26.90;;;22.48;;
18526;SDS011;9393;42.158;24.748;2023-08-06T05:00:30;34.05;;;22.65;;
18526;SDS011;9393;42.158;24.748;2023-08-06T05:03:34;26.70;;;23.88;;
18526;SDS011;9393;42.158;24.748;2023-08-06T05:06:38;30.55;;;22.40;;
18526;SDS011;9393;42.158;24.748;2023-08-06T05:09:42;26.98;;;23.30;;
18526;SDS011;9393;42.158;24.748;2023-08-06T05:12:47;29.55;;;24.02;;
18526;SDS011;9393;42.158;24.748;2023-08-06T05:15:53;27.17;;;22.90;;
18526;SDS011;9393;42.158;24.748;2023-08-06T05:18:57;25.80;;;23.15;;
18526;SDS011;9393;42.158;24.748;2023-08-06T05:22:00;25.95;;;23.15;;
18526;SDS011;9393;42.158;24.748;2023-08-06T05:25:05;28.42;;;23.27;;
18526;SDS011;9393;42.158;24.748;2023-08-06T05:28:11;30.95;;;23.10;;
18526;SDS011;9393;42.158;24.748;2023-08-06T05:31:15;28.55;;;23.35;;
18526;SDS011;9393;42.158;24.748;2023-08-06T05:34:19;29.80;;;23.48;;
18526;SDS011;9393;42.158;24.748;2023-08-06T05:37:23;23.92;;;20.48;;
18526;SDS011;9393;42.158;24.748;2023-08-06T05:40:27;23.42;;;19.55;;
18526;SDS011;9393;42.158;24.748;2023-08-06T05:43:32;25.45;;;18.63;;
18526;SDS011;9393;42.158;24.748;2023-08-06T05:46:36;24.73;;;15.90;;
18526;SDS011;9393;42.158;24.748;2023-08-06T05:49:40;17.92;;;13.13;;
18526;SDS011;9393;42.158;24.748;2023-08-06T05:52:44;11.90;;;9.05;;
18526;SDS011;9393;42.158;24.748;2023-08-06T05:55:48;13.98;;;8.32;;
18526;SDS011;9393;42.158;24.748;2023-08-06T05:58:54;11.18;;;7.65;;
18526;SDS011;9393;42.158;24.748;2023-08-06T06:01:58;15.23;;;8.30;;
18526;SDS011;9393;42.158;24.748;2023-08-06T06:05:02;19.73;;;8.13;;
18526;SDS011;9393;42.158;24.748;2023-08-06T06:08:07;13.00;;;7.85;;
18526;SDS011;9393;42.158;24.748;2023-08-06T06:11:14;13.75;;;7.70;;
18526;SDS011;9393;42.158;24.748;2023-08-06T06:14:19;13.50;;;7.30;;
18526;SDS011;9393;42.158;24.748;2023-08-06T06:17:23;15.05;;;7.25;;
18526;SDS011;9393;42.158;24.748;2023-08-06T06:20:27;13.75;;;7.25;;
18526;SDS011;9393;42.158;24.748;2023-08-06T06:23:31;12.23;;;7.22;;
18526;SDS011;9393;42.158;24.748;2023-08-06T06:26:35;12.55;;;7.85;;
18526;SDS011;9393;42.158;24.748;2023-08-06T06:29:41;11.68;;;7.45;;
18526;SDS011;9393;42.158;24.748;2023-08-06T06:32:45;15.15;;;7.82;;
18526;SDS011;9393;42.158;24.748;2023-08-06T06:35:49;12.93;;;7.53;;
18526;SDS011;9393;42.158;24.748;2023-08-06T06:38:53;14.70;;;7.82;;
18526;SDS011;9393;42.158;24.748;2023-08-06T06:41:57;11.77;;;7.93;;
18526;SDS011;9393;42.158;24.748;2023-08-06T06:45:11;11.02;;;7.82;;
18526;SDS011;9393;42.158;24.748;2023-08-06T06:48:15;9.98;;;7.82;;
18526;SDS011;9393;42.158;24.748;2023-08-06T06:51:18;10.13;;;7.55;;
18526;SDS011;9393;42.158;24.748;2023-08-06T06:54:23;13.73;;;8.32;;
18526;SDS011;9393;42.158;24.748;2023-08-06T06:57:27;13.88;;;8.77;;
18526;SDS011;9393;42.158;24.748;2023-08-06T07:00:32;14.82;;;9.65;;
18526;SDS011;9393;42.158;24.748;2023-08-06T07:03:39;13.60;;;9.20;;
18526;SDS011;9393;42.158;24.748;2023-08-06T07:06:43;10.90;;;8.40;;
18526;SDS011;9393;42.158;24.748;2023-08-06T07:09:47;11.15;;;8.63;;
18526;SDS011;9393;42.158;24.748;2023-08-06T07:12:51;10.65;;;8.60;;
18526;SDS011;9393;42.158;24.748;2023-08-06T07:15:56;10.80;;;8.70;;
18526;SDS011;9393;42.158;24.748;2023-08-06T07:19:00;12.98;;;8.73;;
18526;SDS011;9393;42.158;24.748;2023-08-06T07:22:05;8.38;;;7.53;;
18526;SDS011;9393;42.158;24.748;2023-08-06T07:25:09;11.20;;;8.77;;
18526;SDS011;9393;42.158;24.748;2023-08-06T07:28:13;15.57;;;8.70;;
18526;SDS011;9393;42.158;24.748;2023-08-06T07:31:19;13.60;;;8.90;;
18526;SDS011;9393;42.158;24.748;2023-08-06T07:34:23;11.85;;;8.80;;
18526;SDS011;9393;42.158;24.748;2023-08-06T07:37:27;14.38;;;8.88;;
18526;SDS011;9393;42.158;24.748;2023-08-06T07:40:31;11.90;;;9.80;;
18526;SDS011;9393;42.158;24.748;2023-08-06T07:43:36;16.27;;;9.15;;
18526;SDS011;9393;42.158;24.748;2023-08-06T07:46:41;10.07;;;9.05;;
18526;SDS011;9393;42.158;24.748;2023-08-06T07:49:45;12.07;;;9.60;;
18526;SDS011;9393;42.158;24.748;2023-08-06T07:52:49;16.02;;;10.27;;
18526;SDS011;9393;42.158;24.748;2023-08-06T07:55:54;15.25;;;9.75;;
18526;SDS011;9393;42.158;24.748;2023-08-06T07:58:58;18.02;;;10.80;;
18526;SDS011;9393;42.158;24.748;2023-08-06T08:02:04;15.30;;;11.82;;
18526;SDS011;9393;42.158;24.748;2023-08-06T08:05:08;13.68;;;11.18;;
18526;SDS011;9393;42.158;24.748;2023-08-06T08:08:12;15.23;;;11.98;;
18526;SDS011;9393;42.158;24.748;2023-08-06T08:11:16;14.98;;;12.80;;
18526;SDS011;9393;42.158;24.748;2023-08-06T08:14:20;16.13;;;12.90;;
18526;SDS011;9393;42.158;24.748;2023-08-06T08:17:26;16.85;;;12.65;;
18526;SDS011;9393;42.158;24.748;2023-08-06T08:20:30;18.05;;;12.80;;
18526;SDS011;9393;42.158;24.748;2023-08-06T08:23:35;16.58;;;12.38;;
18526;SDS011;9393;42.158;24.748;2023-08-06T08:26:41;18.27;;;12.40;;
18526;SDS011;9393;42.158;24.748;2023-08-06T08:29:45;14.45;;;12.20;;
18526;SDS011;9393;42.158;24.748;2023-08-06T08:32:50;15.35;;;12.52;;
18526;SDS011;9393;42.158;24.748;2023-08-06T08:35:55;12.88;;;11.55;;
18526;SDS011;9393;42.158;24.748;2023-08-06T08:38:59;15.18;;;12.77;;
18526;SDS011;9393;42.158;24.748;2023-08-06T08:42:03;14.80;;;12.73;;
18526;SDS011;9393;42.158;24.748;2023-08-06T08:45:11;15.68;;;13.32;;
18526;SDS011;9393;42.158;24.748;2023-08-06T08:48:18;15.57;;;13.30;;
18526;SDS011;9393;42.158;24.748;2023-08-06T08:51:23;15.45;;;12.85;;
18526;SDS011;9393;42.158;24.748;2023-08-06T08:54:28;20.20;;;14.27;;
18526;SDS011;9393;42.158;24.748;2023-08-06T08:57:36;17.98;;;13.00;;
18526;SDS011;9393;42.158;24.748;2023-08-06T09:00:40;16.10;;;13.13;;
18526;SDS011;9393;42.158;24.748;2023-08-06T09:03:47;14.70;;;13.15;;
18526;SDS011;9393;42.158;24.748;2023-08-06T09:06:51;14.82;;;13.05;;
18526;SDS011;9393;42.158;24.748;2023-08-06T09:09:57;16.35;;;14.00;;
18526;SDS011;9393;42.158;24.748;2023-08-06T09:13:05;14.93;;;12.20;;
18526;SDS011;9393;42.158;24.748;2023-08-06T09:16:10;13.43;;;10.88;;
18526;SDS011;9393;42.158;24.748;2023-08-06T09:19:16;12.88;;;11.57;;
18526;SDS011;9393;42.158;24.748;2023-08-06T09:22:19;11.13;;;10.02;;
18526;SDS011;9393;42.158;24.748;2023-08-06T09:25:24;9.15;;;8.23;;
18526;SDS011;9393;42.158;24.748;2023-08-06T09:28:36;10.40;;;6.95;;
18526;SDS011;9393;42.158;24.748;2023-08-06T09:31:44;5.53;;;4.95;;
18526;SDS011;9393;42.158;24.748;2023-08-06T09:34:54;4.72;;;4.32;;
18526;SDS011;9393;42.158;24.748;2023-08-06T09:38:05;4.63;;;3.97;;
18526;SDS011;9393;42.158;24.748;2023-08-06T09:41:10;5.88;;;4.70;;
18526;SDS011;9393;42.158;24.748;2023-08-06T09:44:30;5.88;;;4.78;;
18526;SDS011;9393;42.158;24.748;2023-08-06T09:47:37;5.38;;;4.88;;
18526;SDS011;9393;42.158;24.748;2023-08-06T09:50:42;4.82;;;4.32;;
18526;SDS011;9393;42.158;24.748;2023-08-06T09:53:47;4.80;;;4.40;;
18526;SDS011;9393;42.158;24.748;2023-08-06T09:56:52;5.45;;;4.95;;
18526;SDS011;9393;42.158;24.748;2023-08-06T09:59:57;5.68;;;5.10;;
18526;SDS011;9393;42.158;24.748;2023-08-06T10:03:13;6.22;;;5.63;;
18526;SDS011;9393;42.158;24.748;2023-08-06T10:06:21;8.30;;;6.90;;
18526;SDS011;9393;42.158;24.748;2023-08-06T10:09:27;7.68;;;6.97;;
18526;SDS011;9393;42.158;24.748;2023-08-06T10:12:31;11.40;;;8.05;;
18526;SDS011;9393;42.158;24.748;2023-08-06T10:15:37;9.23;;;7.57;;
18526;SDS011;9393;42.158;24.748;2023-08-06T10:18:42;8.55;;;7.75;;
18526;SDS011;9393;42.158;24.748;2023-08-06T10:25:16;7.93;;;6.72;;
18526;SDS011;9393;42.158;24.748;2023-08-06T10:28:20;6.95;;;6.35;;
18526;SDS011;9393;42.158;24.748;2023-08-06T10:34:58;6.65;;;6.05;;
18526;SDS011;9393;42.158;24.748;2023-08-06T10:38:05;7.35;;;6.35;;
18526;SDS011;9393;42.158;24.748;2023-08-06T10:41:15;6.60;;;6.00;;
18526;SDS011;9393;42.158;24.748;2023-08-06T10:44:22;6.60;;;6.00;;
18526;SDS011;9393;42.158;24.748;2023-08-06T10:47:37;6.88;;;5.30;;
18526;SDS011;9393;42.158;24.748;2023-08-06T10:50:45;6.00;;;5.40;;
18526;SDS011;9393;42.158;24.748;2023-08-06T10:53:51;6.47;;;5.72;;
18526;SDS011;9393;42.158;24.748;2023-08-06T10:56:55;6.57;;;5.85;;
18526;SDS011;9393;42.158;24.748;2023-08-06T10:59:59;7.10;;;6.50;;
18526;SDS011;9393;42.158;24.748;2023-08-06T11:03:17;8.40;;;6.05;;
18526;SDS011;9393;42.158;24.748;2023-08-06T11:06:21;7.75;;;5.85;;
18526;SDS011;9393;42.158;24.748;2023-08-06T11:09:28;5.80;;;5.30;;
18526;SDS011;9393;42.158;24.748;2023-08-06T11:12:32;5.93;;;5.25;;
18526;SDS011;9393;42.158;24.748;2023-08-06T11:15:36;7.47;;;5.28;;
18526;SDS011;9393;42.158;24.748;2023-08-06T11:18:40;5.70;;;4.40;;
18526;SDS011;9393;42.158;24.748;2023-08-06T11:21:44;6.45;;;4.38;;
18526;SDS011;9393;42.158;24.748;2023-08-06T11:24:51;5.38;;;4.88;;
18526;SDS011;9393;42.158;24.748;2023-08-06T11:27:56;6.22;;;5.10;;
18526;SDS011;9393;42.158;24.748;2023-08-06T11:31:00;5.45;;;4.93;;
18526;SDS011;9393;42.158;24.748;2023-08-06T11:34:07;4.25;;;3.95;;
18526;SDS011;9393;42.158;24.748;2023-08-06T11:37:11;5.22;;;4.72;;
18526;SDS011;9393;42.158;24.748;2023-08-06T11:40:16;6.03;;;4.93;;
18526;SDS011;9393;42.158;24.748;2023-08-06T11:43:21;3.95;;;3.55;;
18526;SDS011;9393;42.158;24.748;2023-08-06T11:46:25;4.82;;;3.97;;
18526;SDS011;9393;42.158;24.748;2023-08-06T11:49:40;4.85;;;4.38;;
18526;SDS011;9393;42.158;24.748;2023-08-06T11:52:47;4.32;;;3.92;;
18526;SDS011;9393;42.158;24.748;2023-08-06T11:55:52;3.30;;;3.00;;
18526;SDS011;9393;42.158;24.748;2023-08-06T11:58:56;7.85;;;3.30;;
18526;SDS011;9393;42.158;24.748;2023-08-06T12:02:01;5.90;;;3.13;;
18526;SDS011;9393;42.158;24.748;2023-08-06T12:05:10;5.68;;;3.17;;
18526;SDS011;9393;42.158;24.748;2023-08-06T12:08:15;3.70;;;3.33;;
18526;SDS011;9393;42.158;24.748;2023-08-06T12:11:20;4.50;;;2.90;;
18526;SDS011;9393;42.158;24.748;2023-08-06T12:14:25;4.68;;;2.72;;
18526;SDS011;9393;42.158;24.748;2023-08-06T12:17:29;3.33;;;3.03;;
18526;SDS011;9393;42.158;24.748;2023-08-06T12:20:33;9.25;;;3.40;;
18526;SDS011;9393;42.158;24.748;2023-08-06T12:23:38;4.47;;;3.15;;
18526;SDS011;9393;42.158;24.748;2023-08-06T12:26:43;5.90;;;3.22;;
18526;SDS011;9393;42.158;24.748;2023-08-06T12:29:48;3.25;;;2.80;;
18526;SDS011;9393;42.158;24.748;2023-08-06T12:32:52;3.20;;;2.80;;
18526;SDS011;9393;42.158;24.748;2023-08-06T12:35:56;4.20;;;2.97;;
18526;SDS011;9393;42.158;24.748;2023-08-06T12:39:00;2.45;;;2.25;;
18526;SDS011;9393;42.158;24.748;2023-08-06T12:42:05;3.40;;;2.40;;
18526;SDS011;9393;42.158;24.748;2023-08-06T12:45:11;3.28;;;2.80;;
18526;SDS011;9393;42.158;24.748;2023-08-06T12:48:16;2.75;;;2.47;;
18526;SDS011;9393;42.158;24.748;2023-08-06T12:51:21;2.90;;;2.60;;
18526;SDS011;9393;42.158;24.748;2023-08-06T12:54:25;4.47;;;2.80;;
18526;SDS011;9393;42.158;24.748;2023-08-06T12:57:31;3.00;;;2.67;;
18526;SDS011;9393;42.158;24.748;2023-08-06T13:00:58;2.88;;;2.65;;
18526;SDS011;9393;42.158;24.748;2023-08-06T13:04:03;3.35;;;3.05;;
18526;SDS011;9393;42.158;24.748;2023-08-06T13:07:30;2.90;;;2.70;;
18526;SDS011;9393;42.158;24.748;2023-08-06T13:10:34;3.63;;;2.90;;
18526;SDS011;9393;42.158;24.748;2023-08-06T13:13:40;3.92;;;3.03;;
18526;SDS011;9393;42.158;24.748;2023-08-06T13:16:44;2.80;;;2.58;;
18526;SDS011;9393;42.158;24.748;2023-08-06T13:19:49;2.78;;;2.58;;
18526;SDS011;9393;42.158;24.748;2023-08-06T13:22:54;3.88;;;2.67;;
18526;SDS011;9393;42.158;24.748;2023-08-06T13:25:58;2.60;;;2.40;;
18526;SDS011;9393;42.158;24.748;2023-08-06T13:29:04;3.03;;;2.50;;
18526;SDS011;9393;42.158;24.748;2023-08-06T13:32:09;3.00;;;2.70;;
18526;SDS011;9393;42.158;24.748;2023-08-06T13:35:13;5.03;;;3.05;;
18526;SDS011;9393;42.158;24.748;2023-08-06T13:38:18;5.28;;;2.58;;
18526;SDS011;9393;42.158;24.748;2023-08-06T13:41:22;3.08;;;2.88;;
18526;SDS011;9393;42.158;24.748;2023-08-06T13:44:27;3.08;;;2.45;;
18526;SDS011;9393;42.158;24.748;2023-08-06T13:47:31;2.20;;;2.00;;
18526;SDS011;9393;42.158;24.748;2023-08-06T13:50:35;3.60;;;2.13;;
18526;SDS011;9393;42.158;24.748;2023-08-06T13:53:41;3.60;;;1.90;;
18526;SDS011;9393;42.158;24.748;2023-08-06T13:56:46;3.08;;;2.17;;
18526;SDS011;9393;42.158;24.748;2023-08-06T13:59:51;2.65;;;1.95;;
18526;SDS011;9393;42.158;24.748;2023-08-06T14:02:55;3.17;;;2.33;;
18526;SDS011;9393;42.158;24.748;2023-08-06T14:06:00;3.85;;;2.28;;
18526;SDS011;9393;42.158;24.748;2023-08-06T14:09:04;7.03;;;2.45;;
18526;SDS011;9393;42.158;24.748;2023-08-06T14:12:08;3.83;;;2.47;;
18526;SDS011;9393;42.158;24.748;2023-08-06T14:15:13;2.15;;;1.88;;
18526;SDS011;9393;42.158;24.748;2023-08-06T14:18:17;2.78;;;2.30;;
18526;SDS011;9393;42.158;24.748;2023-08-06T14:21:21;2.47;;;1.95;;
18526;SDS011;9393;42.158;24.748;2023-08-06T14:24:26;2.70;;;2.30;;
18526;SDS011;9393;42.158;24.748;2023-08-06T14:27:30;4.40;;;2.20;;
18526;SDS011;9393;42.158;24.748;2023-08-06T14:30:36;3.05;;;2.25;;
18526;SDS011;9393;42.158;24.748;2023-08-06T14:33:40;3.03;;;2.25;;
18526;SDS011;9393;42.158;24.748;2023-08-06T14:36:44;3.88;;;2.47;;
18526;SDS011;9393;42.158;24.748;2023-08-06T14:39:48;4.45;;;2.22;;
18526;SDS011;9393;42.158;24.748;2023-08-06T14:42:52;3.65;;;2.30;;
18526;SDS011;9393;42.158;24.748;2023-08-06T14:45:57;4.75;;;2.72;;
18526;SDS011;9393;42.158;24.748;2023-08-06T14:49:01;5.68;;;2.28;;
18526;SDS011;9393;42.158;24.748;2023-08-06T14:52:06;2.83;;;2.22;;
18526;SDS011;9393;42.158;24.748;2023-08-06T14:55:10;4.35;;;2.70;;
18526;SDS011;9393;42.158;24.748;2023-08-06T14:58:14;3.55;;;2.53;;
18526;SDS011;9393;42.158;24.748;2023-08-06T15:01:20;5.40;;;2.47;;
18526;SDS011;9393;42.158;24.748;2023-08-06T15:04:24;2.75;;;2.20;;
18526;SDS011;9393;42.158;24.748;2023-08-06T15:07:28;3.95;;;2.50;;
18526;SDS011;9393;42.158;24.748;2023-08-06T15:10:35;3.90;;;2.20;;
18526;SDS011;9393;42.158;24.748;2023-08-06T15:13:39;3.60;;;2.42;;
18526;SDS011;9393;42.158;24.748;2023-08-06T15:16:45;3.00;;;2.00;;
18526;SDS011;9393;42.158;24.748;2023-08-06T15:19:50;2.40;;;2.20;;
18526;SDS011;9393;42.158;24.748;2023-08-06T15:22:54;2.20;;;2.00;;
18526;SDS011;9393;42.158;24.748;2023-08-06T15:26:00;2.72;;;2.10;;
18526;SDS011;9393;42.158;24.748;2023-08-06T15:29:04;2.72;;;2.20;;
18526;SDS011;9393;42.158;24.748;2023-08-06T15:32:09;3.90;;;2.10;;
18526;SDS011;9393;42.158;24.748;2023-08-06T15:35:15;3.17;;;2.28;;
18526;SDS011;9393;42.158;24.748;2023-08-06T15:38:19;2.40;;;1.88;;
18526;SDS011;9393;42.158;24.748;2023-08-06T15:41:23;3.22;;;1.88;;
18526;SDS011;9393;42.158;24.748;2023-08-06T15:44:27;2.45;;;2.17;;
18526;SDS011;9393;42.158;24.748;2023-08-06T15:47:33;3.17;;;2.30;;
18526;SDS011;9393;42.158;24.748;2023-08-06T15:50:42;2.78;;;2.10;;
18526;SDS011;9393;42.158;24.748;2023-08-06T15:53:47;3.35;;;2.15;;
18526;SDS011;9393;42.158;24.748;2023-08-06T15:56:50;3.55;;;1.90;;
18526;SDS011;9393;42.158;24.748;2023-08-06T15:59:55;2.75;;;2.25;;
18526;SDS011;9393;42.158;24.748;2023-08-06T16:03:01;2.33;;;2.13;;
18526;SDS011;9393;42.158;24.748;2023-08-06T16:06:06;2.88;;;2.10;;
18526;SDS011;9393;42.158;24.748;2023-08-06T16:09:09;3.55;;;2.55;;
18526;SDS011;9393;42.158;24.748;2023-08-06T16:12:13;4.15;;;2.22;;
18526;SDS011;9393;42.158;24.748;2023-08-06T16:15:20;4.88;;;2.30;;
18526;SDS011;9393;42.158;24.748;2023-08-06T16:18:26;3.03;;;2.50;;
18526;SDS011;9393;42.158;24.748;2023-08-06T16:21:30;2.85;;;2.25;;
18526;SDS011;9393;42.158;24.748;2023-08-06T16:24:34;4.43;;;2.60;;
18526;SDS011;9393;42.158;24.748;2023-08-06T16:27:40;2.70;;;2.45;;
18526;SDS011;9393;42.158;24.748;2023-08-06T16:30:44;3.13;;;2.65;;
18526;SDS011;9393;42.158;24.748;2023-08-06T16:33:51;3.60;;;2.50;;
18526;SDS011;9393;42.158;24.748;2023-08-06T16:36:55;2.47;;;2.25;;
18526;SDS011;9393;42.158;24.748;2023-08-06T16:39:59;3.70;;;2.60;;
18526;SDS011;9393;42.158;24.748;2023-08-06T16:43:03;2.70;;;2.50;;
18526;SDS011;9393;42.158;24.748;2023-08-06T16:46:07;3.25;;;2.42;;
18526;SDS011;9393;42.158;24.748;2023-08-06T16:49:12;3.13;;;2.40;;
18526;SDS011;9393;42.158;24.748;2023-08-06T16:52:17;6.32;;;2.50;;
18526;SDS011;9393;42.158;24.748;2023-08-06T16:55:21;4.53;;;2.60;;
18526;SDS011;9393;42.158;24.748;2023-08-06T16:58:25;2.92;;;2.53;;
18526;SDS011;9393;42.158;24.748;2023-08-06T17:01:30;2.90;;;2.53;;
18526;SDS011;9393;42.158;24.748;2023-08-06T17:04:35;5.80;;;3.42;;
18526;SDS011;9393;42.158;24.748;2023-08-06T17:07:40;3.05;;;2.47;;
18526;SDS011;9393;42.158;24.748;2023-08-06T17:10:45;4.95;;;2.42;;
18526;SDS011;9393;42.158;24.748;2023-08-06T17:13:49;3.65;;;3.10;;
18526;SDS011;9393;42.158;24.748;2023-08-06T17:16:53;3.72;;;3.00;;
18526;SDS011;9393;42.158;24.748;2023-08-06T17:20:00;5.13;;;2.88;;
18526;SDS011;9393;42.158;24.748;2023-08-06T17:23:04;3.28;;;2.97;;
18526;SDS011;9393;42.158;24.748;2023-08-06T17:26:07;4.00;;;2.80;;
18526;SDS011;9393;42.158;24.748;2023-08-06T17:29:11;3.35;;;2.78;;
18526;SDS011;9393;42.158;24.748;2023-08-06T17:32:15;7.22;;;3.03;;
18526;SDS011;9393;42.158;24.748;2023-08-06T17:35:21;7.38;;;4.82;;
18526;SDS011;9393;42.158;24.748;2023-08-06T17:38:25;136.73;;;50.10;;
18526;SDS011;9393;42.158;24.748;2023-08-06T17:41:29;10.30;;;4.65;;
18526;SDS011;9393;42.158;24.748;2023-08-06T17:44:33;24.02;;;11.07;;
18526;SDS011;9393;42.158;24.748;2023-08-06T17:47:37;5.47;;;3.75;;
18526;SDS011;9393;42.158;24.748;2023-08-06T17:50:44;4.18;;;3.10;;
18526;SDS011;9393;42.158;24.748;2023-08-06T17:53:49;16.23;;;8.18;;
18526;SDS011;9393;42.158;24.748;2023-08-06T17:56:53;57.78;;;26.88;;
18526;SDS011;9393;42.158;24.748;2023-08-06T18:00:00;25.33;;;9.43;;
18526;SDS011;9393;42.158;24.748;2023-08-06T18:03:11;12.57;;;7.50;;
18526;SDS011;9393;42.158;24.748;2023-08-06T18:06:17;14.48;;;7.75;;
18526;SDS011;9393;42.158;24.748;2023-08-06T18:09:21;18.75;;;9.80;;
18526;SDS011;9393;42.158;24.748;2023-08-06T18:12:25;7.32;;;4.00;;
18526;SDS011;9393;42.158;24.748;2023-08-06T18:15:29;7.30;;;4.72;;
18526;SDS011;9393;42.158;24.748;2023-08-06T18:18:33;9.55;;;5.32;;
18526;SDS011;9393;42.158;24.748;2023-08-06T18:21:38;8.10;;;4.93;;
18526;SDS011;9393;42.158;24.748;2023-08-06T18:24:42;7.15;;;4.53;;
18526;SDS011;9393;42.158;24.748;2023-08-06T18:27:47;9.50;;;4.72;;
18526;SDS011;9393;42.158;24.748;2023-08-06T18:30:51;12.90;;;6.10;;